Time;durP1;ratioP1;P1;durP2;ratioP2;P2;SDS_P1;SDS_P2;PMS_P1;PMS_P2;Temp;Humidity;BMP_temperature;BMP_pressure;BME280_temperature;BME280_humidity;BME280_pressure;Samples;Min_cycle;Max_cycle;Signal;HPM_P1;HPM_P2
2022/06/25 00:01:55;;;;;;;10.73;6.27;;;22.60;68.80;;;;;;4993508;28;20493;-72
2022/06/25 00:07:05;;;;;;;8.35;6.25;;;22.60;68.60;;;;;;4976694;28;20196;-72
2022/06/25 00:09:31;;;;;;;11.90;6.77;;;22.70;68.20;;;;;;4993474;28;20117;-71
2022/06/25 00:14:41;;;;;;;12.02;7.32;;;22.50;68.50;;;;;;4994778;28;20106;-71
2022/06/25 00:17:06;;;;;;;7.50;6.47;;;22.40;68.90;;;;;;4994364;28;20026;-72
2022/06/25 00:19:32;;;;;;;11.60;7.40;;;22.40;69.20;;;;;;4992506;28;20033;-71
2022/06/25 00:21:58;;;;;;;9.90;7.00;;;22.30;69.40;;;;;;4993301;28;20029;-71
2022/06/25 00:24:24;;;;;;;10.60;6.97;;;22.20;69.70;;;;;;4994286;28;20372;-71
2022/06/25 00:26:49;;;;;;;8.83;7.10;;;22.10;70.00;;;;;;4994373;28;20493;-71
2022/06/25 00:29:15;;;;;;;9.25;7.10;;;22.00;70.10;;;;;;4993131;28;20105;-72
2022/06/25 00:31:41;;;;;;;10.40;7.38;;;22.00;70.40;;;;;;4994095;28;20026;-72
2022/06/25 00:34:07;;;;;;;8.13;6.73;;;21.90;70.50;;;;;;4992673;28;20123;-72
2022/06/25 00:36:33;;;;;;;11.80;7.40;;;22.00;70.60;;;;;;4994629;28;20392;-71
2022/06/25 00:38:58;;;;;;;9.20;7.43;;;22.00;70.60;;;;;;4993024;28;20429;-71
2022/06/25 00:41:25;;;;;;;8.90;7.50;;;22.00;70.40;;;;;;4994109;28;20045;-72
2022/06/25 00:43:50;;;;;;;11.50;7.93;;;22.00;70.50;;;;;;4992604;28;20038;-72
2022/06/25 00:46:16;;;;;;;9.67;8.60;;;22.00;70.50;;;;;;4994181;28;20441;-72
2022/06/25 00:48:42;;;;;;;10.02;9.02;;;21.90;70.60;;;;;;4992578;28;20033;-72
2022/06/25 00:51:13;;;;;;;9.53;8.37;;;21.90;70.70;;;;;;4994358;28;20113;-72
2022/06/25 00:53:41;;;;;;;11.45;8.30;;;21.90;70.80;;;;;;4993603;28;20415;-72
2022/06/25 00:56:09;;;;;;;11.88;8.73;;;22.00;70.80;;;;;;4992804;28;20122;-72
2022/06/25 00:58:39;;;;;;;11.52;8.10;;;22.00;70.60;;;;;;4993716;28;20034;-71
2022/06/25 01:01:08;;;;;;;11.95;8.65;;;22.00;70.30;;;;;;4993920;28;20030;-72
2022/06/25 01:03:37;;;;;;;9.30;7.93;;;22.00;70.40;;;;;;4993259;28;20027;-72
2022/06/25 01:06:04;;;;;;;12.75;8.23;;;22.00;70.60;;;;;;4993625;28;20025;-71
2022/06/25 01:08:33;;;;;;;;;;;22.00;70.40;;;;;;4994091;28;20030;-72
2022/06/25 01:11:00;;;;;;;12.82;9.27;;;22.00;70.30;;;;;;5013457;28;19937;-72
2022/06/25 01:13:26;;;;;;;8.80;7.95;;;22.00;70.40;;;;;;5006113;28;20018;-72
2022/06/25 01:15:51;;;;;;;11.18;8.05;;;21.80;70.90;;;;;;4992564;28;20395;-72
2022/06/25 01:18:17;;;;;;;9.93;8.32;;;21.70;71.20;;;;;;4993533;28;20033;-72
2022/06/25 01:20:43;;;;;;;10.60;9.50;;;21.70;71.60;;;;;;4993307;28;20118;-72
2022/06/25 01:23:12;;;;;;;10.83;8.27;;;21.70;71.70;;;;;;4993268;28;20030;-72
2022/06/25 01:25:39;;;;;;;11.88;8.45;;;21.60;72.50;;;;;;4993326;28;20053;-72
2022/06/25 01:28:06;;;;;;;10.48;8.50;;;21.60;72.00;;;;;;4993565;28;20023;-72
2022/06/25 01:30:33;;;;;;;12.68;7.57;;;21.60;71.80;;;;;;4992382;28;20026;-73
2022/06/25 01:32:59;;;;;;;15.15;8.75;;;21.70;71.60;;;;;;4992809;28;20018;-71
2022/06/25 01:35:27;;;;;;;16.80;8.37;;;21.70;71.40;;;;;;4993110;28;20542;-72
2022/06/25 01:37:53;;;;;;;14.20;7.63;;;21.90;71.10;;;;;;4992989;28;20034;-72
2022/06/25 01:40:19;;;;;;;12.95;8.38;;;21.90;70.90;;;;;;4993301;28;20399;-72
2022/06/25 01:43:00;;;;;;;11.00;8.03;;;21.80;70.80;;;;;;4991611;28;20030;-72
2022/06/25 01:45:34;;;;;;;10.60;7.90;;;21.80;71.00;;;;;;4993235;28;20030;-71
2022/06/25 01:48:01;;;;;;;13.48;8.45;;;21.80;71.10;;;;;;4992702;28;20041;-71
2022/06/25 01:50:28;;;;;;;15.25;8.13;;;21.80;70.90;;;;;;4992779;28;20045;-72
2022/06/25 01:52:54;;;;;;;9.20;7.60;;;21.70;70.80;;;;;;4984990;28;20084;-72
2022/06/25 01:55:20;;;;;;;16.53;8.37;;;21.60;71.10;;;;;;4992909;28;20023;-72
2022/06/25 01:57:47;;;;;;;10.50;8.43;;;21.50;71.40;;;;;;4991271;28;20033;-71
2022/06/25 02:00:16;;;;;;;11.70;8.73;;;21.50;71.90;;;;;;4992799;28;20702;-72
2022/06/25 02:02:43;;;;;;;11.02;8.77;;;21.40;72.00;;;;;;4992239;28;20056;-71
2022/06/25 02:05:10;;;;;;;12.48;8.35;;;21.40;72.20;;;;;;4992548;28;20034;-71
2022/06/25 02:07:35;;;;;;;;;;;21.40;72.10;;;;;;4992781;28;20027;-71
2022/06/25 02:10:01;;;;;;;11.18;7.72;;;21.40;72.00;;;;;;4992890;28;19997;-71
2022/06/25 02:12:26;;;;;;;8.37;7.57;;;21.40;72.20;;;;;;4992200;28;20577;-71
2022/06/25 02:14:52;;;;;;;9.10;7.60;;;21.40;72.10;;;;;;4992620;28;20109;-72
2022/06/25 02:17:18;;;;;;;8.98;8.07;;;21.50;72.00;;;;;;4992262;28;20398;-71
2022/06/25 02:19:44;;;;;;;8.90;8.00;;;21.60;71.90;;;;;;4991285;28;20030;-72
2022/06/25 02:22:14;;;;;;;10.33;9.03;;;21.50;71.80;;;;;;4991101;28;20069;-72
2022/06/25 02:24:44;;;;;;;9.70;8.68;;;21.50;71.90;;;;;;5025957;23;20128;-60
2022/06/25 02:27:10;;;;;;;10.77;9.20;;;21.40;72.30;;;;;;5011217;28;20029;-60
2022/06/25 02:29:36;;;;;;;10.43;8.97;;;21.40;72.30;;;;;;5010809;28;20041;-60
2022/06/25 02:32:02;;;;;;;10.20;9.13;;;21.40;72.30;;;;;;5011385;28;20432;-61
2022/06/25 02:34:28;;;;;;;12.30;8.45;;;21.50;72.60;;;;;;5011034;28;20418;-60
2022/06/25 02:36:54;;;;;;;10.48;8.90;;;21.50;72.20;;;;;;5011078;28;20278;-61
2022/06/25 02:39:20;;;;;;;16.92;9.88;;;21.60;72.10;;;;;;5011279;28;20033;-60
2022/06/25 02:41:45;;;;;;;11.65;9.27;;;21.60;71.90;;;;;;5010705;28;20029;-61
2022/06/25 02:44:11;;;;;;;10.00;8.73;;;21.60;71.80;;;;;;5011710;28;20034;-61
2022/06/25 02:46:37;;;;;;;13.10;9.50;;;21.60;71.90;;;;;;5011556;28;20483;-60
2022/06/25 02:49:03;;;;;;;16.35;9.50;;;21.40;72.20;;;;;;5011513;28;20025;-60
2022/06/25 02:51:29;;;;;;;13.57;8.80;;;21.30;72.70;;;;;;5002473;28;20030;-61
2022/06/25 02:53:55;;;;;;;10.88;9.77;;;21.20;72.90;;;;;;5011181;28;20030;-60
2022/06/25 02:59:07;;;;;;;18.52;11.60;;;21.20;72.70;;;;;;5012003;28;20037;-60
2022/06/25 03:01:33;;;;;;;10.73;9.32;;;21.10;72.90;;;;;;5010753;28;20038;-60
2022/06/25 03:03:59;;;;;;;9.93;8.90;;;21.00;73.20;;;;;;5011123;28;20109;-60
2022/06/25 03:06:25;;;;;;;10.37;9.43;;;21.00;73.30;;;;;;5011309;28;20117;-60
2022/06/25 03:08:51;;;;;;;10.60;9.52;;;21.00;73.40;;;;;;5010115;28;20033;-61
2022/06/25 03:11:17;;;;;;;9.73;8.75;;;21.00;73.50;;;;;;5010172;28;20022;-61
2022/06/25 03:13:43;;;;;;;9.65;8.75;;;21.10;73.40;;;;;;5011146;28;20026;-61
2022/06/25 03:16:09;;;;;;;13.20;9.38;;;21.20;73.10;;;;;;5004004;28;20501;-60
2022/06/25 03:18:36;;;;;;;11.38;9.73;;;21.30;72.90;;;;;;4995126;28;20026;-60
2022/06/25 03:21:01;;;;;;;;;;;21.30;72.70;;;;;;4992819;28;20490;-60
2022/06/25 03:23:28;;;;;;;12.07;9.15;;;21.20;72.80;;;;;;5003870;28;19910;-60
2022/06/25 03:25:54;;;;;;;11.85;9.07;;;21.20;72.80;;;;;;5011477;28;20033;-61
2022/06/25 03:28:20;;;;;;;12.30;9.03;;;21.20;72.80;;;;;;5009397;28;20025;-60
2022/06/25 03:30:46;;;;;;;10.27;9.33;;;21.20;72.80;;;;;;4992054;28;20026;-61
2022/06/25 03:33:13;;;;;;;11.40;10.27;;;21.20;72.80;;;;;;4993574;28;20331;-61
2022/06/25 03:35:39;;;;;;;12.57;9.60;;;21.20;72.90;;;;;;5011519;28;20113;-60
2022/06/25 03:38:05;;;;;;;11.93;9.68;;;21.20;72.90;;;;;;5005329;28;20065;-61
2022/06/25 03:40:31;;;;;;;12.13;9.60;;;21.20;72.80;;;;;;4999384;28;20058;-60
2022/06/25 03:42:58;;;;;;;15.30;10.13;;;21.30;72.70;;;;;;4994488;28;20508;-61
2022/06/25 03:45:24;;;;;;;12.88;9.13;;;21.30;72.70;;;;;;5010782;28;20033;-60
2022/06/25 03:47:52;;;;;;;14.70;10.90;;;21.20;72.80;;;;;;5010932;28;20049;-61
2022/06/25 03:50:19;;;;;;;12.93;9.95;;;21.10;72.90;;;;;;5011038;28;20030;-61
2022/06/25 03:52:46;;;;;;;11.38;10.13;;;21.00;73.50;;;;;;5011178;28;20026;-60
2022/06/25 03:55:14;;;;;;;11.77;9.93;;;20.90;73.80;;;;;;5013785;28;20495;-63
2022/06/25 03:57:40;;;;;;;10.38;9.27;;;21.00;73.90;;;;;;5014591;28;20069;-62
2022/06/25 04:00:07;;;;;;;20.87;10.50;;;21.00;73.80;;;;;;5014134;28;20479;-62
2022/06/25 04:02:33;;;;;;;12.30;9.73;;;21.00;73.70;;;;;;5014481;28;20490;-62
2022/06/25 04:05:00;;;;;;;12.40;9.90;;;21.10;73.70;;;;;;5013633;28;20026;-62
2022/06/25 04:07:26;;;;;;;10.68;9.57;;;21.10;73.60;;;;;;5014478;28;20029;-62
2022/06/25 04:09:52;;;;;;;11.55;10.40;;;21.00;73.90;;;;;;5014663;28;20093;-62
2022/06/25 04:12:17;;;;;;;10.83;9.73;;;21.00;74.10;;;;;;5013205;28;20029;-62
2022/06/25 04:14:43;;;;;;;10.30;9.25;;;21.00;73.70;;;;;;5014513;28;20399;-62
2022/06/25 04:17:10;;;;;;;13.43;10.13;;;20.90;73.80;;;;;;5014544;28;20030;-62
2022/06/25 04:19:40;;;;;;;;;;;20.90;74.00;;;;;;5015005;28;20053;-62
2022/06/25 04:22:10;;;;;;;11.18;10.00;;;20.90;74.70;;;;;;5014453;28;20008;-62
2022/06/25 04:24:38;;;;;;;9.95;8.95;;;20.90;74.60;;;;;;5014161;28;20037;-62
2022/06/25 04:27:04;;;;;;;11.60;9.48;;;20.90;74.80;;;;;;5012921;28;20029;-62
2022/06/25 04:29:30;;;;;;;12.05;10.35;;;20.90;75.00;;;;;;5013011;28;20022;-61
2022/06/25 04:31:56;;;;;;;11.07;9.00;;;21.00;75.20;;;;;;5014335;28;20022;-63
2022/06/25 04:34:22;;;;;;;12.68;10.20;;;21.00;75.00;;;;;;5014150;28;20091;-63
2022/06/25 04:36:48;;;;;;;11.93;9.25;;;21.10;74.90;;;;;;5014217;28;20037;-63
2022/06/25 04:39:14;;;;;;;10.70;9.68;;;21.20;74.80;;;;;;5014048;28;20033;-63
2022/06/25 04:41:40;;;;;;;13.43;9.75;;;21.30;74.70;;;;;;5013965;28;20394;-63
2022/06/25 04:44:06;;;;;;;9.57;8.23;;;21.30;74.70;;;;;;5013995;28;20030;-62
2022/06/25 04:46:31;;;;;;;10.05;9.05;;;21.30;74.70;;;;;;5014093;28;20022;-61
2022/06/25 04:48:58;;;;;;;12.00;8.52;;;21.40;74.90;;;;;;5013800;28;20030;-62
2022/06/25 04:51:25;;;;;;;10.95;8.98;;;21.40;74.70;;;;;;5013822;28;20040;-61
2022/06/25 04:53:57;;;;;;;13.40;9.57;;;21.50;74.40;;;;;;5013827;28;20068;-63
2022/06/25 04:56:28;;;;;;;12.68;9.10;;;21.50;74.40;;;;;;5013840;28;20029;-63
2022/06/25 04:58:56;;;;;;;12.27;9.10;;;21.60;74.60;;;;;;5013703;28;20014;-63
2022/06/25 05:01:22;;;;;;;14.45;10.63;;;21.60;75.00;;;;;;5013741;28;20044;-62
2022/06/25 05:03:47;;;;;;;11.35;9.60;;;21.70;74.70;;;;;;5013541;28;20022;-63
2022/06/25 05:06:14;;;;;;;16.50;10.30;;;21.70;74.60;;;;;;5013506;28;20037;-63
2022/06/25 05:08:40;;;;;;;11.50;9.95;;;21.80;74.60;;;;;;5013387;28;20026;-62
2022/06/25 05:11:06;;;;;;;11.43;10.33;;;21.80;74.60;;;;;;5013553;28;20029;-62
2022/06/25 05:13:32;;;;;;;15.37;11.20;;;21.80;75.40;;;;;;5013432;28;20026;-62
2022/06/25 05:15:57;;;;;;;18.60;11.43;;;21.80;74.70;;;;;;5013489;28;20029;-62
2022/06/25 05:18:23;;;;;;;15.07;9.37;;;21.90;74.40;;;;;;5013234;28;20022;-61
2022/06/25 05:20:49;;;;;;;12.50;10.27;;;22.00;74.40;;;;;;5013382;28;20033;-63
2022/06/25 05:23:14;;;;;;;10.43;9.07;;;22.10;74.30;;;;;;5013252;28;20401;-63
2022/06/25 05:25:41;;;;;;;13.57;10.03;;;22.20;74.00;;;;;;5013107;28;20029;-62
2022/06/25 05:28:07;;;;;;;17.98;10.65;;;22.10;74.10;;;;;;5013189;28;20309;-63
2022/06/25 05:30:33;;;;;;;15.35;9.98;;;22.20;74.00;;;;;;5013094;28;20022;-63
2022/06/25 05:32:59;;;;;;;13.50;10.25;;;22.30;74.10;;;;;;5013045;28;20025;-63
2022/06/25 05:35:25;;;;;;;12.07;9.20;;;22.40;73.80;;;;;;5012976;28;20030;-63
2022/06/25 05:37:51;;;;;;;12.43;9.27;;;22.40;73.60;;;;;;5012871;28;20026;-63
2022/06/25 05:40:18;;;;;;;12.70;9.73;;;22.40;73.60;;;;;;5011813;28;20032;-63
2022/06/25 05:42:44;;;;;;;13.80;10.55;;;22.40;73.80;;;;;;5012978;28;20030;-62
2022/06/25 05:45:10;;;;;;;13.60;10.17;;;22.50;73.50;;;;;;5012743;28;20100;-62
2022/06/25 05:47:35;;;;;;;18.87;10.90;;;22.60;73.60;;;;;;5012721;28;20030;-63
2022/06/25 05:50:01;;;;;;;15.07;12.40;;;22.60;73.80;;;;;;5012835;28;20507;-62
2022/06/25 05:52:27;;;;;;;17.23;12.37;;;22.70;73.30;;;;;;5012788;28;20118;-62
2022/06/25 05:54:52;;;;;;;20.93;13.13;;;22.80;73.30;;;;;;5012627;28;20072;-62
2022/06/25 05:57:19;;;;;;;24.27;14.23;;;22.80;73.10;;;;;;5012589;28;20030;-62
2022/06/25 05:59:45;;;;;;;21.35;12.98;;;22.90;72.60;;;;;;5012649;28;20025;-63
2022/06/25 06:02:12;;;;;;;22.15;11.40;;;23.00;71.90;;;;;;5012575;28;20220;-63
2022/06/25 06:04:37;;;;;;;12.93;9.45;;;23.00;71.30;;;;;;5012358;28;20375;-63
2022/06/25 06:07:04;;;;;;;13.17;8.23;;;23.10;71.00;;;;;;5012333;28;20028;-62
2022/06/25 06:09:31;;;;;;;10.80;8.50;;;23.10;70.40;;;;;;5012559;28;20033;-63
2022/06/25 06:11:58;;;;;;;13.13;8.48;;;23.20;70.40;;;;;;5012562;28;20018;-62
2022/06/25 06:14:24;;;;;;;9.93;8.93;;;23.30;70.30;;;;;;5012297;28;20026;-62
2022/06/25 06:16:50;;;;;;;9.23;7.87;;;23.30;70.40;;;;;;5011844;28;20033;-62
2022/06/25 06:19:16;;;;;;;9.93;7.67;;;23.30;70.20;;;;;;5012280;28;20022;-63
2022/06/25 06:21:42;;;;;;;8.97;7.50;;;23.40;69.70;;;;;;5012266;28;20519;-63
2022/06/25 06:24:07;;;;;;;8.73;7.83;;;23.50;69.50;;;;;;5012032;28;20036;-62
2022/06/25 06:26:34;;;;;;;13.57;7.80;;;23.50;69.30;;;;;;5012302;28;20026;-62
2022/06/25 06:29:00;;;;;;;11.38;8.27;;;23.60;69.30;;;;;;5012085;28;20295;-63
2022/06/25 06:31:25;;;;;;;13.80;9.07;;;23.60;69.50;;;;;;5010979;28;20386;-63
2022/06/25 06:33:51;;;;;;;17.57;9.67;;;23.70;68.90;;;;;;5012166;28;20026;-63
2022/06/25 06:36:17;;;;;;;19.43;10.70;;;23.60;68.50;;;;;;5010862;28;20436;-63
2022/06/25 06:38:43;;;;;;;18.40;10.90;;;23.70;68.80;;;;;;5011901;28;20029;-62
2022/06/25 06:41:09;;;;;;;21.48;12.93;;;23.70;69.30;;;;;;5012063;28;20114;-63
2022/06/25 06:43:36;;;;;;;19.33;11.30;;;23.80;69.30;;;;;;5011888;28;20022;-63
2022/06/25 06:46:02;;;;;;;15.43;10.15;;;23.80;69.60;;;;;;5012066;28;20018;-62
2022/06/25 06:48:28;;;;;;;21.33;11.20;;;23.90;68.30;;;;;;5011864;28;20148;-62
2022/06/25 06:50:54;;;;;;;15.88;11.35;;;24.00;68.30;;;;;;5011976;28;20037;-63
2022/06/25 06:53:21;;;;;;;11.83;7.60;;;24.00;68.60;;;;;;5011849;28;20344;-63
2022/06/25 06:55:47;;;;;;;8.63;4.82;;;24.00;68.10;;;;;;5011966;28;20045;-62
2022/06/25 06:58:13;;;;;;;6.45;4.57;;;24.10;66.30;;;;;;5010408;28;20390;-63
2022/06/25 07:00:38;;;;;;;5.33;4.53;;;24.10;65.20;;;;;;5011860;28;20026;-63
2022/06/25 07:03:04;;;;;;;8.47;4.23;;;24.10;64.60;;;;;;5011712;28;20026;-63
2022/06/25 07:05:30;;;;;;;7.80;5.73;;;24.10;64.90;;;;;;5011755;28;20098;-63
2022/06/25 07:07:56;;;;;;;9.10;5.40;;;24.20;65.70;;;;;;5011720;28;20030;-62
2022/06/25 07:10:22;;;;;;;11.37;5.60;;;24.30;65.80;;;;;;5012131;28;20409;-63
2022/06/25 07:12:47;;;;;;;5.83;4.33;;;24.30;66.00;;;;;;5010465;28;20450;-63
2022/06/25 07:15:13;;;;;;;9.13;5.23;;;24.40;64.70;;;;;;5011575;28;20095;-62
2022/06/25 07:17:39;;;;;;;10.57;5.10;;;24.50;64.60;;;;;;5010306;28;20042;-63
2022/06/25 07:20:06;;;;;;;9.97;4.60;;;24.50;64.50;;;;;;5012229;28;20427;-63
2022/06/25 07:22:32;;;;;;;13.05;4.03;;;24.50;64.50;;;;;;5011611;28;20030;-63
2022/06/25 07:24:58;;;;;;;6.73;3.70;;;24.60;62.10;;;;;;5011351;28;20034;-62
2022/06/25 07:27:23;;;;;;;8.57;5.03;;;24.70;62.70;;;;;;5011428;28;20030;-63
2022/06/25 07:29:49;;;;;;;34.33;6.93;;;24.80;62.60;;;;;;5014465;28;20026;-63
2022/06/25 07:32:15;;;;;;;8.43;4.50;;;24.90;63.10;;;;;;5015359;28;20493;-63
2022/06/25 07:34:40;;;;;;;9.27;3.97;;;24.90;62.60;;;;;;5015366;28;20026;-63
2022/06/25 07:37:06;;;;;;;14.07;4.73;;;24.90;62.40;;;;;;5015159;28;20025;-63
2022/06/25 07:39:32;;;;;;;6.03;4.20;;;25.00;60.70;;;;;;5015426;28;20032;-62
2022/06/25 07:41:58;;;;;;;17.35;12.10;;;25.10;60.50;;;;;;5015156;28;20037;-62
2022/06/25 07:44:24;;;;;;;6.50;3.93;;;25.10;61.20;;;;;;5015001;28;20026;-61
2022/06/25 07:46:49;;;;;;;12.23;4.50;;;25.10;60.20;;;;;;5015132;28;20493;-62
2022/06/25 07:49:15;;;;;;;5.73;3.77;;;25.10;61.10;;;;;;5014915;28;20026;-63
2022/06/25 07:51:56;;;;;;;4.63;2.90;;;25.20;61.10;;;;;;5013715;28;20061;-63
2022/06/25 07:54:23;;;;;;;5.63;3.25;;;25.30;59.90;;;;;;5014948;28;20061;-63
2022/06/25 07:56:48;;;;;;;8.73;3.60;;;25.40;58.70;;;;;;5013587;28;20034;-62
2022/06/25 07:59:14;;;;;;;21.50;10.77;;;25.50;58.90;;;;;;5014729;28;20030;-66
2022/06/25 08:01:40;;;;;;;8.20;3.80;;;25.50;59.50;;;;;;5013546;28;20061;-62
2022/06/25 08:04:06;;;;;;;5.73;3.20;;;25.60;59.50;;;;;;5014680;28;20053;-62
2022/06/25 08:06:34;;;;;;;7.37;2.87;;;25.60;59.60;;;;;;5014824;28;20030;-62
2022/06/25 08:09:01;;;;;;;6.95;3.80;;;25.80;57.40;;;;;;5014597;28;20072;-49
2022/06/25 08:11:26;;;;;;;9.57;3.38;;;25.80;58.00;;;;;;5014639;28;20517;-49
2022/06/25 08:13:52;;;;;;;8.23;3.20;;;25.90;57.70;;;;;;5014566;28;20049;-50
2022/06/25 08:16:18;;;;;;;5.53;3.50;;;25.90;57.40;;;;;;5014596;28;20053;-50
2022/06/25 08:18:43;;;;;;;6.83;3.30;;;26.00;58.20;;;;;;5014502;28;20113;-49
2022/06/25 08:21:09;;;;;;;8.97;3.47;;;26.00;58.80;;;;;;5014450;28;20030;-50
2022/06/25 08:23:38;;;;;;;11.70;3.23;;;26.00;58.50;;;;;;5014525;28;20034;-51
2022/06/25 08:26:03;;;;;;;8.68;3.17;;;25.90;58.90;;;;;;5013109;28;20025;-49
2022/06/25 08:28:29;;;;;;;9.60;4.47;;;25.90;59.50;;;;;;5014181;28;20072;-50
2022/06/25 08:30:55;;;;;;;7.17;4.03;;;26.00;58.90;;;;;;5014367;28;20096;-50
2022/06/25 08:33:20;;;;;;;8.97;3.90;;;26.10;59.20;;;;;;5014139;28;20402;-50
2022/06/25 08:35:46;;;;;;;8.03;3.47;;;26.20;59.40;;;;;;5014220;28;20080;-50
2022/06/25 08:38:12;;;;;;;8.60;4.13;;;26.30;59.20;;;;;;5012954;28;20110;-50
2022/06/25 08:40:38;;;;;;;7.50;3.53;;;26.30;58.90;;;;;;5013657;28;20280;-50
2022/06/25 08:43:05;;;;;;;9.23;4.00;;;26.40;58.70;;;;;;5014061;28;20495;-50
2022/06/25 08:45:30;;;;;;;11.27;4.88;;;26.40;59.00;;;;;;5013768;28;20025;-50
2022/06/25 08:47:58;;;;;;;8.47;3.97;;;26.40;58.60;;;;;;5013894;28;20014;-50
2022/06/25 08:50:24;;;;;;;9.98;3.65;;;26.50;59.50;;;;;;5014056;28;20033;-50
2022/06/25 08:52:55;;;;;;;8.20;4.27;;;26.60;59.20;;;;;;5014035;28;20134;-50
2022/06/25 08:55:23;;;;;;;20.33;4.57;;;26.70;59.10;;;;;;5013693;28;20026;-51
2022/06/25 08:57:49;;;;;;;10.40;3.88;;;26.70;58.80;;;;;;5013560;28;20040;-50
2022/06/25 09:00:15;;;;;;;10.33;3.37;;;26.70;58.30;;;;;;5013772;28;20030;-50
2022/06/25 09:02:41;;;;;;;9.02;3.30;;;26.70;58.60;;;;;;5013819;28;20029;-50
2022/06/25 09:05:08;;;;;;;9.70;4.30;;;26.80;58.40;;;;;;5013591;28;20405;-50
2022/06/25 09:07:35;;;;;;;14.45;3.53;;;26.90;58.40;;;;;;5013439;28;20026;-50
2022/06/25 09:10:01;;;;;;;7.90;3.78;;;27.00;58.00;;;;;;5013572;28;20109;-50
2022/06/25 09:12:27;;;;;;;8.57;3.33;;;27.00;57.20;;;;;;5013442;28;20062;-50
2022/06/25 09:14:52;;;;;;;13.27;3.77;;;26.90;58.30;;;;;;5013460;28;20030;-51
2022/06/25 09:17:18;;;;;;;7.97;3.47;;;27.10;57.60;;;;;;5012078;28;20030;-50
2022/06/25 09:19:47;;;;;;;10.23;3.83;;;27.00;57.90;;;;;;5013587;28;20025;-50
2022/06/25 09:22:15;;;;;;;10.65;3.58;;;27.00;58.40;;;;;;5013270;28;20507;-50
2022/06/25 09:24:43;;;;;;;14.85;3.63;;;27.10;57.70;;;;;;5012949;28;20079;-50
2022/06/25 09:27:09;;;;;;;9.57;3.10;;;27.20;57.60;;;;;;5013090;28;20038;-50
2022/06/25 09:29:40;;;;;;;7.38;2.42;;;27.30;56.30;;;;;;5013234;28;20033;-50
2022/06/25 09:32:07;;;;;;;13.85;2.78;;;27.30;55.80;;;;;;5013202;28;20079;-50
2022/06/25 09:34:37;;;;;;;9.57;2.55;;;27.30;55.10;;;;;;5013029;28;20026;-50
2022/06/25 09:37:25;;;;;;;9.32;2.53;;;27.40;54.00;;;;;;5012901;28;20029;-50
2022/06/25 09:39:53;;;;;;;13.23;3.13;;;27.40;52.90;;;;;;5013092;28;20391;-50
2022/06/25 09:42:20;;;;;;;9.88;2.97;;;27.50;54.30;;;;;;5012948;28;20022;-50
2022/06/25 09:44:48;;;;;;;10.20;3.53;;;27.50;53.00;;;;;;5012838;28;20072;-50
2022/06/25 09:47:15;;;;;;;14.88;3.15;;;27.50;54.40;;;;;;5012629;28;20045;-50
2022/06/25 09:49:41;;;;;;;7.10;2.47;;;27.60;54.30;;;;;;5011582;28;20030;-50
2022/06/25 09:52:08;;;;;;;9.37;3.03;;;27.80;53.60;;;;;;5011960;28;20022;-50
2022/06/25 09:54:34;;;;;;;6.43;2.85;;;27.80;52.20;;;;;;5012674;28;20061;-50
2022/06/25 09:57:01;;;;;;;9.43;2.80;;;27.90;52.20;;;;;;5012744;28;20061;-50
2022/06/25 09:59:30;;;;;;;9.85;3.28;;;28.00;52.30;;;;;;5012780;28;20080;-50
2022/06/25 10:02:02;;;;;;;9.15;3.03;;;28.00;52.90;;;;;;5012506;28;20018;-50
2022/06/25 10:04:30;;;;;;;8.25;2.83;;;28.10;52.60;;;;;;5011087;28;20088;-49
2022/06/25 10:06:57;;;;;;;5.22;2.78;;;28.10;52.80;;;;;;5012787;28;20026;-50
2022/06/25 10:09:25;;;;;;;;;;;28.20;52.40;;;;;;5012869;28;20022;-50
2022/06/25 10:11:52;;;;;;;8.10;2.70;;;28.20;51.60;;;;;;5012477;28;19958;-50
2022/06/25 10:14:17;;;;;;;10.23;2.85;;;28.10;51.50;;;;;;5012331;28;20371;-50
2022/06/25 10:16:44;;;;;;;9.23;3.00;;;28.10;52.70;;;;;;5012421;28;20124;-49
2022/06/25 10:19:10;;;;;;;;;;;28.20;53.70;;;;;;5012593;28;20502;-50
2022/06/25 10:21:36;;;;;;;9.55;2.72;;;28.20;53.20;;;;;;5012310;28;20354;-51
2022/06/25 10:24:04;;;;;;;6.57;2.83;;;28.20;52.90;;;;;;5012075;28;20044;-50
2022/06/25 10:26:31;;;;;;;10.07;2.75;;;28.30;52.10;;;;;;5012193;28;20402;-50
2022/06/25 10:28:57;;;;;;;10.63;3.28;;;28.30;53.10;;;;;;5012045;28;20034;-50
2022/06/25 10:31:22;;;;;;;7.03;2.50;;;28.40;51.80;;;;;;5012196;28;20018;-50
2022/06/25 10:33:54;;;;;;;12.57;3.07;;;28.30;50.90;;;;;;5011958;28;20018;-51
2022/06/25 10:36:39;;;;;;;6.25;2.75;;;28.50;51.90;;;;;;5010842;28;20401;-50
2022/06/25 10:39:23;;;;;;;6.45;2.90;;;28.60;52.10;;;;;;5011956;28;20033;-50
2022/06/25 10:45:11;;;;;;;11.75;3.00;;;28.80;51.60;;;;;;5012102;28;20053;-51
2022/06/25 10:47:47;;;;;;;11.73;3.05;;;28.80;52.40;;;;;;5010717;28;20033;-49
2022/06/25 10:50:22;;;;;;;9.02;3.08;;;28.80;51.90;;;;;;5002482;28;20388;-50
2022/06/25 10:53:06;;;;;;;9.70;3.92;;;28.60;52.20;;;;;;5011739;28;20037;-50
2022/06/25 10:55:34;;;;;;;8.82;2.60;;;28.60;53.30;;;;;;5007106;28;20054;-50
2022/06/25 10:58:23;;;;;;;14.65;2.40;;;28.70;52.80;;;;;;4996695;28;20030;-51
2022/06/25 11:00:58;;;;;;;7.72;2.67;;;28.90;51.60;;;;;;4995488;28;20033;-50
2022/06/25 11:03:42;;;;;;;21.90;3.03;;;29.00;50.90;;;;;;5008810;28;20034;-51
2022/06/25 11:06:22;;;;;;;8.82;2.83;;;29.00;51.10;;;;;;5015686;28;20025;-50
2022/06/25 11:08:49;;;;;;;9.30;3.58;;;29.00;50.90;;;;;;5015431;28;20117;-50
2022/06/25 11:11:28;;;;;;;7.28;2.90;;;29.00;50.80;;;;;;5009101;28;20487;-50
2022/06/25 11:13:54;;;;;;;5.93;2.85;;;29.20;49.70;;;;;;5008470;28;20040;-50
2022/06/25 11:16:21;;;;;;;7.45;2.58;;;29.30;49.50;;;;;;5015479;28;20104;-50
2022/06/25 11:18:47;;;;;;;9.70;2.47;;;29.30;50.30;;;;;;5015131;28;20104;-50
2022/06/25 11:21:25;;;;;;;7.03;2.47;;;29.30;50.40;;;;;;5015537;28;20419;-50
2022/06/25 11:23:52;;;;;;;9.13;2.67;;;29.30;49.90;;;;;;5014316;28;20042;-50
2022/06/25 11:29:02;;;;;;;8.68;3.17;;;29.40;50.90;;;;;;5015884;28;20501;-50
2022/06/25 11:31:28;;;;;;;11.43;3.70;;;29.60;49.50;;;;;;5010814;28;20023;-50
2022/06/25 11:33:54;;;;;;;8.00;2.53;;;29.60;49.50;;;;;;5015027;28;20029;-50
2022/06/25 11:36:20;;;;;;;6.50;2.83;;;29.80;49.40;;;;;;5015200;28;20033;-50
2022/06/25 11:38:54;;;;;;;6.22;2.90;;;29.80;50.30;;;;;;5014284;28;20037;-51
2022/06/25 11:41:20;;;;;;;10.43;3.13;;;30.00;49.80;;;;;;5014044;28;20026;-50
2022/06/25 11:43:46;;;;;;;7.03;2.20;;;30.20;49.70;;;;;;5014636;28;20026;-50
2022/06/25 11:46:18;;;;;;;5.95;2.70;;;30.40;48.70;;;;;;5008188;28;20058;-50
2022/06/25 11:48:47;;;;;;;10.07;2.95;;;30.40;47.40;;;;;;5011006;28;20371;-50
2022/06/25 11:51:14;;;;;;;6.32;2.78;;;30.50;47.50;;;;;;5006352;28;20054;-50
2022/06/25 11:53:41;;;;;;;6.60;2.78;;;30.60;48.10;;;;;;5005503;28;20036;-51
2022/06/25 11:56:09;;;;;;;7.82;2.53;;;30.60;46.90;;;;;;5006155;28;20032;-50
2022/06/25 11:58:36;;;;;;;8.07;2.85;;;30.60;47.40;;;;;;5009801;28;20022;-51
2022/06/25 12:01:04;;;;;;;8.80;2.35;;;30.50;47.20;;;;;;5010793;28;20030;-50
2022/06/25 12:03:31;;;;;;;8.00;2.50;;;30.50;47.50;;;;;;5014144;28;20088;-52
2022/06/25 12:05:59;;;;;;;5.20;2.42;;;30.50;48.10;;;;;;5013455;28;20022;-51
2022/06/25 12:08:27;;;;;;;9.30;2.40;;;30.70;46.60;;;;;;5000749;28;20026;-51
2022/06/25 12:10:54;;;;;;;6.75;2.03;;;30.80;47.10;;;;;;5009284;28;20066;-50
2022/06/25 12:13:21;;;;;;;3.72;2.60;;;30.90;46.00;;;;;;4994841;28;20450;-50
2022/06/25 12:16:00;;;;;;;10.18;2.03;;;31.00;46.00;;;;;;4993068;28;20397;-53
2022/06/25 12:18:37;;;;;;;8.07;2.75;;;31.00;45.00;;;;;;5011113;28;20045;-49
2022/06/25 12:21:04;;;;;;;5.45;1.90;;;31.10;45.20;;;;;;4994014;28;20026;-51
2022/06/25 12:23:47;;;;;;;9.90;2.08;;;31.20;45.20;;;;;;5002894;28;20117;-51
2022/06/25 12:26:33;;;;;;;7.88;2.55;;;31.20;43.90;;;;;;5014018;28;20022;-51
2022/06/25 12:29:12;;;;;;;5.65;2.17;;;31.30;45.30;;;;;;5012612;28;20026;-51
2022/06/25 12:31:39;;;;;;;6.28;1.95;;;31.30;45.30;;;;;;5013656;28;20030;-51
2022/06/25 12:34:06;;;;;;;6.18;1.88;;;31.40;45.00;;;;;;5012606;28;20065;-50
2022/06/25 12:36:37;;;;;;;3.85;1.85;;;31.50;44.90;;;;;;5013899;28;20037;-51
2022/06/25 12:39:30;;;;;;;5.97;2.10;;;31.70;45.10;;;;;;5014017;28;20053;-50
2022/06/25 12:42:00;;;;;;;7.97;2.78;;;32.00;44.30;;;;;;5013985;28;20022;-50
2022/06/25 12:44:31;;;;;;;12.52;2.80;;;31.80;43.30;;;;;;5013817;28;20030;-51
2022/06/25 12:46:59;;;;;;;6.00;2.53;;;31.80;44.60;;;;;;5013623;28;20104;-50
2022/06/25 12:49:25;;;;;;;8.00;2.40;;;31.80;44.70;;;;;;5013993;28;20076;-50
2022/06/25 12:51:51;;;;;;;6.30;2.30;;;32.10;44.50;;;;;;5013572;28;20487;-51
2022/06/25 12:54:16;;;;;;;6.03;2.67;;;32.30;42.20;;;;;;5013537;28;20026;-50
2022/06/25 12:56:42;;;;;;;5.57;1.80;;;32.30;42.50;;;;;;5013654;28;20026;-50